createdAt,value
2023-02-26T00:00:31.181Z,53.31
2023-02-26T00:02:57.721Z,53.36
2023-02-26T00:05:24.135Z,53.24
2023-02-26T00:07:50.562Z,53.14
2023-02-26T00:10:17.879Z,52.85
2023-02-26T00:12:44.396Z,53.11
2023-02-26T00:15:10.885Z,52.76
2023-02-26T00:17:37.668Z,52.94
2023-02-26T00:20:04.117Z,52.77
2023-02-26T00:22:30.478Z,53.09
2023-02-26T00:24:57.301Z,52.97
2023-02-26T00:27:23.607Z,53.09
2023-02-26T00:29:50.066Z,52.78
2023-02-26T00:32:16.518Z,52.61
2023-02-26T00:34:44.300Z,52.92
2023-02-26T00:37:10.631Z,52.92
2023-02-26T00:39:37.241Z,52.70
2023-02-26T00:42:04.115Z,52.87
2023-02-26T00:44:30.471Z,52.44
2023-02-26T00:46:56.887Z,52.83
2023-02-26T00:49:23.258Z,52.94
2023-02-26T00:51:49.540Z,52.77
2023-02-26T00:54:15.912Z,52.82
2023-02-26T00:56:42.266Z,52.64
2023-02-26T00:59:09.246Z,52.83
2023-02-26T01:01:35.591Z,52.54
2023-02-26T01:04:02.648Z,52.77
2023-02-26T01:06:29.531Z,52.75
2023-02-26T01:08:55.940Z,52.88
2023-02-26T01:11:22.514Z,52.52
2023-02-26T01:13:48.980Z,52.73
2023-02-26T01:16:15.975Z,52.79
2023-02-26T01:18:42.478Z,52.55
2023-02-26T01:21:08.935Z,52.58
2023-02-26T01:23:35.401Z,52.57
2023-02-26T01:26:01.765Z,52.56
2023-02-26T01:28:28.357Z,52.45
2023-02-26T01:30:55.215Z,52.58
2023-02-26T01:33:21.724Z,52.59
2023-02-26T01:35:48.349Z,52.72
2023-02-26T01:38:15.149Z,52.45
2023-02-26T01:40:41.676Z,52.61
2023-02-26T01:43:08.030Z,52.54
2023-02-26T01:45:34.339Z,52.62
2023-02-26T01:48:00.717Z,52.64
2023-02-26T01:50:27.515Z,52.59
2023-02-26T01:52:54.159Z,52.26
2023-02-26T01:55:20.812Z,52.39
2023-02-26T01:57:47.195Z,52.54
2023-02-26T02:00:14.295Z,52.62
2023-02-26T02:02:41.495Z,52.32
2023-02-26T02:05:07.963Z,52.47
2023-02-26T02:07:34.277Z,52.32
2023-02-26T02:10:01.020Z,52.30
2023-02-26T02:12:28.304Z,52.26
2023-02-26T02:14:55.242Z,52.47
2023-02-26T02:17:21.672Z,52.34
2023-02-26T02:19:48.326Z,52.57
2023-02-26T02:22:16.217Z,52.52
2023-02-26T02:24:42.693Z,52.55
2023-02-26T02:27:09.344Z,52.56
2023-02-26T02:29:35.743Z,52.55
2023-02-26T02:32:02.469Z,52.46
2023-02-26T02:34:28.807Z,52.36
2023-02-26T02:36:55.113Z,52.42
2023-02-26T02:39:21.838Z,52.26
2023-02-26T02:41:48.127Z,52.47
2023-02-26T02:44:14.466Z,52.56
2023-02-26T02:46:40.828Z,52.52
2023-02-26T02:49:07.231Z,52.47
2023-02-26T02:51:33.660Z,52.41
2023-02-26T02:54:00.050Z,52.45
2023-02-26T02:56:26.965Z,52.42
2023-02-26T02:58:53.627Z,52.51
2023-02-26T03:01:20.229Z,52.51
2023-02-26T03:03:46.670Z,52.44
2023-02-26T03:06:13.056Z,52.39
2023-02-26T03:08:39.425Z,52.32
2023-02-26T03:11:05.723Z,52.55
2023-02-26T03:13:32.342Z,52.22
2023-02-26T03:15:58.703Z,52.54
2023-02-26T03:18:25.603Z,52.50
2023-02-26T03:20:52.027Z,52.32
2023-02-26T03:23:18.368Z,52.52
2023-02-26T03:25:44.706Z,52.38
2023-02-26T03:28:11.303Z,52.47
2023-02-26T03:30:38.014Z,52.52
2023-02-26T03:33:05.401Z,52.53
2023-02-26T03:35:31.843Z,52.49
2023-02-26T03:37:58.197Z,52.34
2023-02-26T03:40:24.588Z,52.38
2023-02-26T03:42:51.563Z,52.50
2023-02-26T03:45:18.038Z,52.28
2023-02-26T03:47:44.440Z,52.47
2023-02-26T03:50:10.810Z,52.19
2023-02-26T03:52:37.299Z,52.46
2023-02-26T03:55:03.822Z,52.52
2023-02-26T03:57:30.532Z,52.49
2023-02-26T03:59:57.297Z,52.33
2023-02-26T04:02:23.626Z,52.48
2023-02-26T04:04:51.981Z,52.45
2023-02-26T04:07:19.510Z,52.53
2023-02-26T04:09:46.613Z,52.37
2023-02-26T04:12:14.439Z,52.37
2023-02-26T04:14:41.939Z,52.22
2023-02-26T04:17:10.681Z,52.34
2023-02-26T04:19:38.019Z,52.17
2023-02-26T04:22:05.212Z,52.37
2023-02-26T04:24:32.093Z,52.22
2023-02-26T04:26:58.945Z,52.40
2023-02-26T04:29:25.663Z,52.32
2023-02-26T04:31:52.925Z,52.34
2023-02-26T04:34:19.482Z,52.31
2023-02-26T04:36:47.674Z,51.98
2023-02-26T04:39:14.504Z,52.04
2023-02-26T04:41:40.871Z,52.04
2023-02-26T04:44:07.225Z,52.25
2023-02-26T04:46:34.262Z,52.28
2023-02-26T04:49:01.181Z,52.02
2023-02-26T04:51:27.541Z,52.12
2023-02-26T04:53:53.967Z,52.14
2023-02-26T04:56:20.632Z,51.74
2023-02-26T04:58:46.933Z,52.02
2023-02-26T05:01:13.946Z,51.98
2023-02-26T05:03:40.772Z,51.95
2023-02-26T05:06:07.158Z,51.76
2023-02-26T05:08:33.536Z,52.07
2023-02-26T05:10:59.902Z,51.82
2023-02-26T05:13:26.320Z,51.74
2023-02-26T05:15:52.682Z,51.96
2023-02-26T05:18:18.960Z,51.76
2023-02-26T05:20:45.308Z,52.01
2023-02-26T05:23:11.990Z,51.51
2023-02-26T05:25:38.385Z,51.71
2023-02-26T05:28:05.272Z,51.72
2023-02-26T05:30:31.749Z,51.75
2023-02-26T05:32:58.137Z,51.68
2023-02-26T05:35:24.817Z,51.71
2023-02-26T05:37:51.674Z,51.51
2023-02-26T05:40:18.536Z,51.48
2023-02-26T05:42:46.139Z,51.68
2023-02-26T05:45:12.990Z,51.53
2023-02-26T05:47:39.876Z,51.38
2023-02-26T05:50:06.486Z,51.49
2023-02-26T05:52:33.116Z,51.71
2023-02-26T05:54:59.430Z,51.69
2023-02-26T05:57:26.155Z,51.50
2023-02-26T05:59:52.639Z,51.64
2023-02-26T06:02:19.394Z,51.64
2023-02-26T06:04:46.180Z,51.63
2023-02-26T06:07:13.205Z,51.67
2023-02-26T06:09:39.674Z,51.77
2023-02-26T06:12:06.425Z,51.80
2023-02-26T06:14:32.910Z,51.69
2023-02-26T06:16:59.219Z,51.56
2023-02-26T06:19:25.650Z,51.57
2023-02-26T06:21:52.392Z,51.70
2023-02-26T06:24:18.813Z,51.56
2023-02-26T06:26:45.206Z,51.42
2023-02-26T06:29:11.535Z,51.59
2023-02-26T06:31:38.510Z,51.47
2023-02-26T06:34:05.122Z,51.60
2023-02-26T06:36:31.686Z,51.66
2023-02-26T06:38:58.048Z,51.44
2023-02-26T06:41:24.465Z,51.62
2023-02-26T06:43:51.702Z,51.43
2023-02-26T06:46:18.097Z,51.65
2023-02-26T06:48:45.084Z,51.60
2023-02-26T06:51:11.399Z,51.53
2023-02-26T06:53:37.735Z,51.57
2023-02-26T06:56:04.411Z,51.50
2023-02-26T06:58:30.774Z,51.51
2023-02-26T07:00:57.330Z,51.56
2023-02-26T07:03:23.671Z,51.34
2023-02-26T07:05:50.571Z,51.62
2023-02-26T07:08:17.268Z,51.59
2023-02-26T07:10:43.565Z,51.47
2023-02-26T07:13:10.045Z,51.56
2023-02-26T07:15:36.642Z,51.28
2023-02-26T07:18:03.735Z,51.38
2023-02-26T07:20:30.195Z,51.38
2023-02-26T07:22:58.017Z,51.62
2023-02-26T07:25:24.438Z,51.21
2023-02-26T07:27:51.017Z,51.32
2023-02-26T07:30:17.335Z,51.42
2023-02-26T07:32:43.809Z,51.37
2023-02-26T07:35:10.245Z,51.53
2023-02-26T07:37:36.927Z,51.24
2023-02-26T07:40:03.262Z,51.47
2023-02-26T07:42:29.597Z,51.52
2023-02-26T07:44:56.034Z,51.51
2023-02-26T07:47:22.366Z,51.30
2023-02-26T07:49:48.665Z,51.22
2023-02-26T07:52:15.751Z,51.18
2023-02-26T07:54:42.603Z,51.32
2023-02-26T07:57:08.936Z,51.38
2023-02-26T07:59:35.365Z,51.26
2023-02-26T08:02:01.756Z,51.26
2023-02-26T08:04:28.252Z,51.37
2023-02-26T08:06:54.751Z,51.10
2023-02-26T08:09:21.913Z,51.24
2023-02-26T08:11:48.514Z,51.20
2023-02-26T08:14:14.835Z,51.14
2023-02-26T08:16:41.592Z,51.15
2023-02-26T08:19:08.191Z,51.13
2023-02-26T08:21:34.742Z,51.18
2023-02-26T08:24:01.085Z,51.05
2023-02-26T08:26:27.819Z,51.16
2023-02-26T08:28:54.580Z,51.17
2023-02-26T08:31:21.753Z,51.05
2023-02-26T08:33:48.466Z,51.10
2023-02-26T08:36:14.928Z,51.17
2023-02-26T08:38:41.292Z,51.12
2023-02-26T08:41:07.872Z,51.24
2023-02-26T08:43:34.373Z,51.09
2023-02-26T08:46:00.710Z,50.86
2023-02-26T08:48:27.357Z,51.05
2023-02-26T08:50:53.951Z,50.99
2023-02-26T08:53:20.345Z,50.89
2023-02-26T08:55:46.868Z,50.73
2023-02-26T08:58:13.171Z,50.83
2023-02-26T09:00:39.928Z,51.03
2023-02-26T09:03:06.499Z,50.98
2023-02-26T09:05:32.924Z,50.82
2023-02-26T09:07:59.542Z,51.05
2023-02-26T09:10:25.945Z,50.99
2023-02-26T09:12:52.286Z,50.89
2023-02-26T09:15:18.901Z,51.03
2023-02-26T09:17:45.810Z,50.90
2023-02-26T09:20:12.251Z,50.96
2023-02-26T09:22:38.556Z,50.69
2023-02-26T09:25:05.848Z,50.63
2023-02-26T09:27:32.232Z,50.90
2023-02-26T09:29:58.650Z,50.62
2023-02-26T09:32:25.018Z,50.51
2023-02-26T09:34:51.539Z,50.73
2023-02-26T09:37:18.693Z,51.05
2023-02-26T09:39:46.600Z,50.73
2023-02-26T09:42:13.738Z,50.78
2023-02-26T09:44:40.159Z,50.80
2023-02-26T09:47:06.742Z,50.77
2023-02-26T09:49:33.150Z,50.64
2023-02-26T09:51:59.607Z,50.62
2023-02-26T09:54:26.475Z,50.64
2023-02-26T09:56:53.289Z,50.54
2023-02-26T09:59:19.658Z,50.70
2023-02-26T10:01:46.542Z,50.56
2023-02-26T10:04:13.043Z,50.49
2023-02-26T10:06:39.518Z,50.31
2023-02-26T10:09:06.398Z,50.18
2023-02-26T10:11:33.226Z,50.07
2023-02-26T10:14:00.086Z,50.06
2023-02-26T10:16:27.051Z,50.24
2023-02-26T10:18:54.433Z,50.09
2023-02-26T10:21:20.839Z,50.47
2023-02-26T10:23:48.257Z,50.37
2023-02-26T10:26:15.786Z,50.24
2023-02-26T10:28:42.405Z,50.40
2023-02-26T10:31:09.045Z,50.27
2023-02-26T10:33:35.820Z,50.40
2023-02-26T10:36:02.353Z,50.42
2023-02-26T10:38:28.694Z,50.28
2023-02-26T10:40:55.666Z,50.36
2023-02-26T10:43:22.098Z,50.12
2023-02-26T10:45:49.004Z,50.08
2023-02-26T10:48:15.611Z,50.14
2023-02-26T10:50:41.941Z,49.98
2023-02-26T10:53:08.438Z,50.21
2023-02-26T10:55:35.442Z,50.30
2023-02-26T10:58:01.858Z,50.42
2023-02-26T11:00:28.562Z,50.27
2023-02-26T11:02:54.989Z,50.28
2023-02-26T11:05:22.433Z,50.45
2023-02-26T11:07:48.788Z,50.52
2023-02-26T11:10:15.771Z,50.48
2023-02-26T11:12:42.281Z,50.30
2023-02-26T11:15:08.934Z,50.25
2023-02-26T11:17:35.584Z,50.14
2023-02-26T11:20:02.371Z,50.31
2023-02-26T11:22:29.211Z,50.10
2023-02-26T11:24:55.571Z,50.34
2023-02-26T11:27:22.288Z,50.35
2023-02-26T11:29:48.709Z,50.27
2023-02-26T11:32:15.378Z,50.12
2023-02-26T11:34:41.781Z,50.28
2023-02-26T11:37:08.146Z,50.40
2023-02-26T11:39:34.580Z,50.21
2023-02-26T11:42:01.178Z,50.23
2023-02-26T11:44:27.577Z,50.66
2023-02-26T11:46:54.060Z,50.52
2023-02-26T11:49:20.974Z,50.33
2023-02-26T11:51:47.924Z,50.51
2023-02-26T11:54:14.312Z,50.50
2023-02-26T11:56:41.361Z,50.28
2023-02-26T11:59:07.635Z,50.58
2023-02-26T12:01:34.011Z,50.39
2023-02-26T12:04:00.401Z,50.46
2023-02-26T12:06:26.839Z,50.25
2023-02-26T12:08:54.063Z,50.63
2023-02-26T12:11:20.819Z,50.61
2023-02-26T12:13:47.514Z,50.47
2023-02-26T12:16:14.056Z,50.38
2023-02-26T12:18:40.458Z,50.45
2023-02-26T12:21:06.883Z,50.61
2023-02-26T12:23:33.467Z,50.62
2023-02-26T12:25:59.841Z,50.60
2023-02-26T12:28:26.257Z,50.31
2023-02-26T12:30:53.174Z,50.44
2023-02-26T12:33:20.105Z,50.42
2023-02-26T12:35:47.186Z,50.47
2023-02-26T12:38:15.317Z,50.44
2023-02-26T12:40:41.818Z,50.48
2023-02-26T12:43:08.226Z,50.08
2023-02-26T12:45:34.578Z,50.28
2023-02-26T12:48:01.018Z,50.31
2023-02-26T12:50:27.362Z,50.25
2023-02-26T12:52:53.993Z,50.39
2023-02-26T12:55:20.873Z,50.39
2023-02-26T12:57:48.102Z,50.33
2023-02-26T13:00:14.669Z,50.24
2023-02-26T13:02:41.223Z,50.08
2023-02-26T13:05:07.577Z,50.48
2023-02-26T13:07:34.621Z,50.13
2023-02-26T13:10:00.903Z,50.33
2023-02-26T13:12:27.467Z,50.48
2023-02-26T13:14:53.764Z,50.15
2023-02-26T13:17:20.364Z,50.07
2023-02-26T13:19:47.549Z,50.18
2023-02-26T13:22:13.973Z,50.00
2023-02-26T13:24:40.452Z,49.87
2023-02-26T13:27:07.179Z,50.04
2023-02-26T13:29:33.619Z,50.12
2023-02-26T13:32:00.090Z,50.22
2023-02-26T13:34:26.802Z,50.38
2023-02-26T13:36:53.514Z,50.29
2023-02-26T13:39:20.359Z,50.29
2023-02-26T13:41:46.697Z,50.14
2023-02-26T13:44:13.046Z,50.20
2023-02-26T13:46:40.061Z,50.15
2023-02-26T13:49:06.542Z,50.16
2023-02-26T13:51:32.895Z,50.25
2023-02-26T13:53:59.305Z,50.00
2023-02-26T13:56:26.848Z,49.98
2023-02-26T13:58:53.254Z,49.83
2023-02-26T14:01:19.878Z,49.80
2023-02-26T14:03:46.505Z,49.98
2023-02-26T14:06:12.939Z,49.86
2023-02-26T14:08:39.631Z,49.94
2023-02-26T14:11:06.151Z,50.21
2023-02-26T14:13:32.854Z,50.02
2023-02-26T14:15:59.217Z,50.15
2023-02-26T14:18:26.108Z,50.09
2023-02-26T14:20:52.452Z,50.29
2023-02-26T14:23:18.896Z,50.22
2023-02-26T14:25:45.365Z,50.46
2023-02-26T14:28:11.902Z,50.52
2023-02-26T14:30:38.391Z,50.45
2023-02-26T14:33:04.864Z,50.47
2023-02-26T14:35:31.426Z,50.58
2023-02-26T14:37:58.040Z,50.50
2023-02-26T14:40:24.477Z,50.50
2023-02-26T14:42:51.734Z,50.63
2023-02-26T14:45:18.123Z,50.31
2023-02-26T14:47:44.543Z,50.88
2023-02-26T14:50:11.716Z,50.85
2023-02-26T14:52:38.151Z,50.76
2023-02-26T14:55:04.792Z,51.05
2023-02-26T14:57:31.416Z,51.06
2023-02-26T14:59:57.789Z,50.98
2023-02-26T15:02:24.272Z,50.82
2023-02-26T15:04:50.799Z,50.97
2023-02-26T15:07:17.153Z,50.95
2023-02-26T15:09:43.449Z,51.07
2023-02-26T15:12:09.819Z,51.03
2023-02-26T15:14:36.881Z,51.06
2023-02-26T15:17:03.253Z,52.22
2023-02-26T15:19:29.589Z,50.78
2023-02-26T15:21:56.328Z,50.70
2023-02-26T15:24:22.632Z,50.74
2023-02-26T15:26:49.149Z,50.76
2023-02-26T15:29:15.838Z,50.56
2023-02-26T15:31:42.389Z,50.27
2023-02-26T15:34:08.901Z,50.49
2023-02-26T15:36:35.379Z,50.49
2023-02-26T15:39:01.788Z,50.50
2023-02-26T15:41:28.193Z,50.17
2023-02-26T15:43:55.054Z,50.17
2023-02-26T15:46:21.402Z,50.23
2023-02-26T15:48:48.275Z,49.47
2023-02-26T15:51:15.156Z,49.71
2023-02-26T15:53:41.703Z,49.71
2023-02-26T15:56:08.148Z,49.76
2023-02-26T15:58:34.833Z,49.62
2023-02-26T16:01:01.196Z,49.74
2023-02-26T16:03:27.685Z,49.65
2023-02-26T16:05:54.778Z,49.91
2023-02-26T16:08:21.142Z,49.83
2023-02-26T16:10:47.425Z,49.66
2023-02-26T16:13:14.238Z,49.79
2023-02-26T16:15:40.620Z,49.86
2023-02-26T16:18:07.492Z,49.86
2023-02-26T16:20:34.300Z,49.85
2023-02-26T16:23:00.780Z,49.98
2023-02-26T16:25:27.187Z,49.80
2023-02-26T16:27:53.601Z,50.07
2023-02-26T16:30:20.329Z,50.08
2023-02-26T16:32:46.761Z,50.07
2023-02-26T16:35:13.550Z,50.10
2023-02-26T16:37:39.910Z,49.81
2023-02-26T16:40:06.393Z,49.93
2023-02-26T16:42:33.136Z,50.10
2023-02-26T16:45:00.213Z,50.21
2023-02-26T16:47:27.152Z,50.17
2023-02-26T16:49:53.565Z,50.42
2023-02-26T16:52:20.314Z,50.40
2023-02-26T16:54:46.904Z,50.38
2023-02-26T16:57:13.953Z,50.54
2023-02-26T16:59:40.408Z,50.45
2023-02-26T17:02:06.834Z,50.18
2023-02-26T17:04:33.305Z,50.61
2023-02-26T17:06:59.750Z,50.55
2023-02-26T17:09:26.086Z,50.55
2023-02-26T17:11:52.402Z,50.50
2023-02-26T17:14:18.846Z,50.66
2023-02-26T17:16:45.449Z,50.39
2023-02-26T17:19:12.355Z,50.65
2023-02-26T17:21:38.701Z,50.43
2023-02-26T17:24:05.821Z,50.68
2023-02-26T17:26:32.225Z,50.75
2023-02-26T17:28:58.621Z,50.56
2023-02-26T17:31:25.529Z,50.76
2023-02-26T17:33:52.408Z,50.80
2023-02-26T17:36:19.010Z,50.45
2023-02-26T17:38:45.444Z,50.80
2023-02-26T17:41:11.789Z,50.81
2023-02-26T17:43:38.511Z,50.67
2023-02-26T17:46:05.229Z,50.86
2023-02-26T17:48:31.650Z,50.94
2023-02-26T17:50:58.037Z,50.88
2023-02-26T17:53:24.410Z,50.83
2023-02-26T17:55:51.139Z,51.06
2023-02-26T17:58:17.607Z,50.79
2023-02-26T18:00:43.970Z,50.76
2023-02-26T18:03:10.629Z,50.93
2023-02-26T18:05:36.967Z,50.60
2023-02-26T18:08:03.353Z,50.87
2023-02-26T18:10:29.716Z,50.72
2023-02-26T18:12:56.110Z,50.87
2023-02-26T18:15:22.399Z,50.57
2023-02-26T18:17:48.970Z,50.56
2023-02-26T18:20:15.433Z,50.76
2023-02-26T18:22:41.876Z,50.75
2023-02-26T18:25:08.194Z,50.45
2023-02-26T18:27:34.578Z,50.63
2023-02-26T18:30:00.980Z,50.54
2023-02-26T18:32:27.905Z,50.67
2023-02-26T18:34:54.487Z,50.62
2023-02-26T18:37:21.167Z,50.71
2023-02-26T18:39:47.539Z,50.57
2023-02-26T18:42:13.952Z,50.58
2023-02-26T18:44:40.313Z,50.74
2023-02-26T18:47:06.956Z,50.62
2023-02-26T18:49:33.282Z,50.47
2023-02-26T18:52:00.029Z,50.37
2023-02-26T18:54:26.520Z,50.58
2023-02-26T18:56:53.029Z,50.37
2023-02-26T18:59:19.511Z,50.46
2023-02-26T19:01:46.132Z,50.72
2023-02-26T19:04:12.572Z,50.54
2023-02-26T19:06:39.075Z,50.49
2023-02-26T19:09:05.652Z,50.34
2023-02-26T19:11:31.999Z,50.28
2023-02-26T19:13:58.538Z,50.32
2023-02-26T19:16:24.820Z,50.53
2023-02-26T19:18:51.458Z,50.17
2023-02-26T19:21:17.776Z,50.47
2023-02-26T19:23:44.354Z,50.50
2023-02-26T19:26:11.159Z,50.65
2023-02-26T19:28:37.726Z,50.31
2023-02-26T19:31:04.208Z,50.33
2023-02-26T19:33:30.666Z,50.62
2023-02-26T19:35:57.318Z,50.71
2023-02-26T19:38:23.669Z,50.33
2023-02-26T19:40:50.174Z,50.38
2023-02-26T19:43:16.511Z,50.48
2023-02-26T19:45:42.985Z,50.16
2023-02-26T19:48:09.344Z,50.27
2023-02-26T19:50:35.809Z,50.37
2023-02-26T19:53:02.412Z,50.08
2023-02-26T19:55:29.424Z,50.29
2023-02-26T19:57:56.271Z,50.23
2023-02-26T20:00:22.690Z,50.63
2023-02-26T20:02:49.134Z,50.59
2023-02-26T20:05:15.431Z,50.55
2023-02-26T20:07:42.103Z,50.60
2023-02-26T20:10:09.666Z,50.27
2023-02-26T20:12:36.055Z,50.26
2023-02-26T20:15:02.607Z,50.33
2023-02-26T20:17:29.324Z,50.41
2023-02-26T20:19:55.904Z,50.25
2023-02-26T20:22:22.656Z,50.25
2023-02-26T20:24:50.573Z,50.47
2023-02-26T20:27:17.315Z,50.18
2023-02-26T20:29:44.447Z,50.30
2023-02-26T20:32:11.467Z,50.06
2023-02-26T20:34:38.077Z,50.27
2023-02-26T20:37:05.595Z,50.26
2023-02-26T20:39:31.960Z,50.07
2023-02-26T20:41:58.633Z,49.93
2023-02-26T20:44:25.830Z,50.02
2023-02-26T20:46:52.253Z,50.07
2023-02-26T20:49:19.265Z,50.08
2023-02-26T20:51:45.613Z,50.03
2023-02-26T20:54:12.055Z,49.72
2023-02-26T20:56:38.329Z,49.94
2023-02-26T20:59:04.675Z,49.85
2023-02-26T21:01:31.068Z,49.80
2023-02-26T21:03:57.739Z,49.85
2023-02-26T21:06:24.275Z,49.64
2023-02-26T21:08:50.705Z,49.52
2023-02-26T21:11:17.104Z,49.69
2023-02-26T21:13:43.707Z,49.45
2023-02-26T21:16:10.236Z,49.43
2023-02-26T21:18:37.582Z,49.32
2023-02-26T21:21:04.128Z,49.45
2023-02-26T21:23:30.543Z,49.26
2023-02-26T21:25:56.968Z,49.43
2023-02-26T21:28:23.451Z,49.43
2023-02-26T21:30:49.837Z,49.56
2023-02-26T21:33:16.466Z,49.10
2023-02-26T21:35:42.873Z,49.25
2023-02-26T21:38:09.342Z,49.26
2023-02-26T21:40:35.764Z,49.29
2023-02-26T21:43:02.286Z,49.11
2023-02-26T21:45:29.199Z,48.66
2023-02-26T21:47:55.686Z,48.35
2023-02-26T21:50:22.783Z,48.46
2023-02-26T21:52:49.711Z,48.63
2023-02-26T21:55:16.276Z,49.05
2023-02-26T21:57:43.302Z,49.48
2023-02-26T22:00:09.737Z,49.51
2023-02-26T22:02:37.519Z,49.37
2023-02-26T22:05:04.064Z,49.56
2023-02-26T22:07:30.388Z,49.51
2023-02-26T22:09:56.804Z,49.43
2023-02-26T22:12:23.635Z,49.23
2023-02-26T22:14:50.807Z,49.22
2023-02-26T22:17:17.616Z,48.93
2023-02-26T22:19:44.040Z,49.16
2023-02-26T22:22:10.681Z,48.96
2023-02-26T22:24:37.528Z,48.52
2023-02-26T22:27:03.939Z,48.73
2023-02-26T22:29:30.976Z,48.50
2023-02-26T22:31:57.882Z,48.53
2023-02-26T22:34:24.380Z,48.50
2023-02-26T22:36:51.390Z,48.54
2023-02-26T22:39:17.759Z,48.33
2023-02-26T22:41:44.135Z,48.41
2023-02-26T22:44:10.562Z,48.27
2023-02-26T22:46:37.026Z,48.14
2023-02-26T22:49:03.421Z,48.35
2023-02-26T22:51:29.866Z,48.09
2023-02-26T22:53:56.193Z,48.12
2023-02-26T22:56:22.603Z,47.70
2023-02-26T22:58:48.982Z,47.80
2023-02-26T23:01:15.924Z,48.05
2023-02-26T23:03:42.460Z,47.85
2023-02-26T23:06:08.855Z,47.74
2023-02-26T23:08:35.309Z,47.99
2023-02-26T23:11:01.854Z,47.90
2023-02-26T23:13:28.287Z,47.86
2023-02-26T23:15:54.789Z,47.78
2023-02-26T23:18:21.362Z,47.75
2023-02-26T23:20:47.746Z,47.85
2023-02-26T23:23:14.175Z,47.67
2023-02-26T23:25:40.908Z,47.60
2023-02-26T23:28:07.361Z,47.27
2023-02-26T23:30:33.891Z,47.58
2023-02-26T23:33:00.378Z,47.25
2023-02-26T23:35:26.883Z,47.39
2023-02-26T23:37:53.415Z,47.18
2023-02-26T23:40:19.849Z,47.29
2023-02-26T23:42:46.311Z,47.06
2023-02-26T23:45:12.698Z,47.23
2023-02-26T23:47:39.398Z,47.20
2023-02-26T23:50:05.719Z,47.12
2023-02-26T23:52:32.059Z,47.00
2023-02-26T23:54:58.485Z,47.01
2023-02-26T23:57:25.127Z,46.98
2023-02-26T23:59:51.653Z,46.89
